Time;durP1;ratioP1;P1;durP2;ratioP2;P2;SDS_P1;SDS_P2;PMS_P1;PMS_P2;Temp;Humidity;BMP_temperature;BMP_pressure;BME280_temperature;BME280_humidity;BME280_pressure;Samples;Min_cycle;Max_cycle;Signal;HPM_P1;HPM_P2
2022/08/27 00:00:29;;;;;;;1.00;0.90;;;;;26.10;100519.00;;;;2080629;28;20205;-56
2022/08/27 00:01:30;;;;;;;1.00;0.83;;;;;26.20;100521.00;;;;2095240;28;20209;-57
2022/08/27 00:02:34;;;;;;;1.10;1.00;;;;;26.20;100525.00;;;;2088060;28;20212;-56
2022/08/27 00:03:35;;;;;;;0.90;0.80;;;;;26.20;100521.00;;;;2090194;28;20212;-57
2022/08/27 00:04:35;;;;;;;1.27;1.17;;;;;26.20;100519.00;;;;2096231;28;20462;-57
2022/08/27 00:05:36;;;;;;;1.23;0.97;;;;;26.20;100524.00;;;;2091660;28;20459;-56
2022/08/27 00:06:36;;;;;;;0.80;0.70;;;;;26.20;100524.00;;;;2087882;28;20295;-58
2022/08/27 00:07:37;;;;;;;1.30;1.10;;;;;26.20;100521.00;;;;2086595;28;20236;-56
2022/08/27 00:08:37;;;;;;;0.80;0.70;;;;;26.20;100522.00;;;;2085289;28;20209;-56
2022/08/27 00:09:37;;;;;;;0.97;0.77;;;;;26.10;100521.00;;;;2078175;28;20305;-57
2022/08/27 00:10:38;;;;;;;1.10;1.00;;;;;26.10;100522.00;;;;2086890;28;20307;-57
2022/08/27 00:11:38;;;;;;;0.80;0.70;;;;;26.20;100521.00;;;;2094912;28;20215;-56
2022/08/27 00:12:38;;;;;;;0.90;0.70;;;;;26.20;100521.00;;;;2086938;28;20239;-57
2022/08/27 00:13:39;;;;;;;1.03;0.70;;;;;26.20;100524.00;;;;2086997;28;20213;-57
2022/08/27 00:14:39;;;;;;;1.10;0.80;;;;;26.10;100521.00;;;;2086934;28;20219;-57
2022/08/27 00:15:39;;;;;;;1.40;0.90;;;;;26.20;100525.00;;;;2087222;28;20319;-57
2022/08/27 00:16:40;;;;;;;0.80;0.80;;;;;26.20;100521.00;;;;2086969;28;20228;-56
2022/08/27 00:17:41;;;;;;;1.07;0.90;;;;;26.10;100519.00;;;;2089669;28;20212;-56
2022/08/27 00:18:42;;;;;;;1.30;1.00;;;;;26.20;100524.00;;;;2093227;28;20830;-58
2022/08/27 00:19:43;;;;;;;1.10;0.83;;;;;26.20;100524.00;;;;2086069;28;20212;-56
2022/08/27 00:20:43;;;;;;;1.77;0.83;;;;;26.10;100525.00;;;;2086870;28;20463;-56
2022/08/27 00:21:43;;;;;;;1.10;0.90;;;;;26.20;100523.00;;;;2087034;28;20874;-56
2022/08/27 00:22:44;;;;;;;1.00;0.90;;;;;26.20;100521.00;;;;2086435;28;20221;-57
2022/08/27 00:23:44;;;;;;;1.00;0.63;;;;;26.00;100523.00;;;;2086872;28;20246;-57
2022/08/27 00:24:44;;;;;;;1.47;0.83;;;;;26.20;100528.00;;;;2087256;28;20215;-56
2022/08/27 00:25:45;;;;;;;0.80;0.70;;;;;26.20;100522.00;;;;2087023;28;20221;-57
2022/08/27 00:26:45;;;;;;;1.20;1.00;;;;;26.20;100524.00;;;;2087006;28;20296;-56
2022/08/27 00:27:45;;;;;;;1.03;0.80;;;;;26.20;100525.00;;;;2086199;28;20273;-56
2022/08/27 00:28:46;;;;;;;1.27;0.90;;;;;26.20;100527.00;;;;2093302;28;20680;-57
2022/08/27 00:29:47;;;;;;;1.00;0.87;;;;;26.20;100526.00;;;;2095305;28;20580;-56
2022/08/27 00:30:47;;;;;;;1.50;1.20;;;;;26.20;100519.00;;;;2086360;28;20665;-57
2022/08/27 00:31:47;;;;;;;1.00;0.90;;;;;26.10;100517.00;;;;2086659;28;20227;-57
2022/08/27 00:32:48;;;;;;;1.23;0.90;;;;;26.10;100524.00;;;;2094233;28;20215;-57
2022/08/27 00:33:48;;;;;;;1.20;0.90;;;;;26.10;100522.00;;;;2095329;28;20212;-57
2022/08/27 00:34:48;;;;;;;1.10;0.83;;;;;26.20;100525.00;;;;2095416;28;20262;-58
2022/08/27 00:35:49;;;;;;;0.90;0.80;;;;;26.20;100518.00;;;;2095648;28;20212;-56
2022/08/27 00:36:50;;;;;;;1.37;0.97;;;;;26.10;100528.00;;;;2095311;28;20304;-60
2022/08/27 00:37:50;;;;;;;1.10;0.90;;;;;26.10;100534.00;;;;2086616;28;20692;-59
2022/08/27 00:38:51;;;;;;;1.40;1.00;;;;;26.10;100519.00;;;;2087798;28;20208;-59
2022/08/27 00:39:52;;;;;;;1.13;1.00;;;;;26.20;100518.00;;;;2078941;28;20221;-56
2022/08/27 00:40:52;;;;;;;0.90;0.70;;;;;26.10;100524.00;;;;2079014;28;20210;-57
2022/08/27 00:41:53;;;;;;;1.00;0.90;;;;;26.20;100524.00;;;;2088020;28;20553;-57
2022/08/27 00:42:53;;;;;;;0.90;0.70;;;;;26.10;100534.00;;;;2087801;28;20213;-56
2022/08/27 00:43:57;;;;;;;1.27;0.97;;;;;26.10;100530.00;;;;2087792;28;20224;-57
2022/08/27 00:44:58;;;;;;;1.57;1.00;;;;;26.10;100523.00;;;;2087654;28;20726;-57
2022/08/27 00:46:04;;;;;;;1.40;0.97;;;;;26.10;100527.00;;;;2086852;28;20455;-57
2022/08/27 00:47:14;;;;;;;1.30;0.83;;;;;26.10;100526.00;;;;2084780;28;20505;-56
2022/08/27 00:48:15;;;;;;;0.83;0.73;;;;;26.10;100526.00;;;;2079303;28;20468;-56
2022/08/27 00:49:20;;;;;;;1.33;1.00;;;;;26.20;100530.00;;;;2079092;28;20441;-56
2022/08/27 00:50:30;;;;;;;1.67;1.17;;;;;26.10;100529.00;;;;2084309;28;20474;-57
2022/08/27 00:51:31;;;;;;;1.10;1.00;;;;;26.10;100526.00;;;;2079728;28;20467;-57
2022/08/27 00:52:55;;;;;;;1.00;0.90;;;;;26.10;100494.00;;;;2094198;28;20462;-56
2022/08/27 00:53:55;;;;;;;1.37;0.90;;;;;26.10;100527.00;;;;2085703;28;20307;-56
2022/08/27 00:54:59;;;;;;;1.00;0.80;;;;;26.10;100529.00;;;;2087041;28;20464;-56
2022/08/27 00:56:26;;;;;;;1.17;0.97;;;;;26.10;100532.00;;;;2093998;28;20212;-57
2022/08/27 00:57:27;;;;;;;0.97;0.87;;;;;26.10;100530.00;;;;2091152;28;20826;-57
2022/08/27 00:58:38;;;;;;;1.20;1.10;;;;;26.10;100529.00;;;;2094129;28;20486;-57
2022/08/27 00:59:38;;;;;;;1.93;1.00;;;;;26.10;100536.00;;;;2088043;28;20208;-56
2022/08/27 01:00:39;;;;;;;1.20;1.10;;;;;26.10;100529.00;;;;2086126;28;20486;-57
2022/08/27 01:02:17;;;;;;;1.40;1.10;;;;;26.10;100529.00;;;;2094658;28;20208;-57
2022/08/27 01:02:59;;;;;;;1.50;1.00;;;;;26.10;100529.00;;;;2094957;28;20207;-57
2022/08/27 01:04:02;;;;;;;1.77;1.20;;;;;26.10;100535.00;;;;2088286;28;20482;-57
2022/08/27 01:05:08;;;;;;;2.03;1.43;;;;;26.10;100523.00;;;;2082114;28;20219;-56
2022/08/27 01:06:09;;;;;;;1.23;0.90;;;;;26.10;100526.00;;;;2077030;28;20499;-57
2022/08/27 01:07:09;;;;;;;1.23;1.00;;;;;26.10;100519.00;;;;2078656;28;20506;-57
2022/08/27 01:08:16;;;;;;;1.10;0.90;;;;;26.10;100527.00;;;;2085766;28;20467;-57
2022/08/27 01:09:16;;;;;;;1.00;0.90;;;;;26.10;100512.00;;;;2078681;28;20252;-57
2022/08/27 01:10:18;;;;;;;1.50;1.10;;;;;26.10;100523.00;;;;2078529;28;20859;-56
2022/08/27 01:11:19;;;;;;;1.10;1.00;;;;;26.10;100500.00;;;;2078650;28;20214;-57
2022/08/27 01:12:19;;;;;;;1.20;1.10;;;;;26.10;100524.00;;;;2078428;28;20990;-56
2022/08/27 01:13:21;;;;;;;1.17;1.07;;;;;26.20;100531.00;;;;2086550;28;20715;-56
2022/08/27 01:14:22;;;;;;;1.17;0.80;;;;;26.10;100521.00;;;;2078214;28;20235;-56
2022/08/27 01:15:24;;;;;;;1.00;0.90;;;;;26.10;100520.00;;;;2070345;28;20461;-57
2022/08/27 01:16:25;;;;;;;1.40;0.97;;;;;26.10;100525.00;;;;2078398;28;20216;-56
2022/08/27 01:17:26;;;;;;;1.10;0.73;;;;;26.10;100526.00;;;;2069328;28;20456;-56
2022/08/27 01:18:28;;;;;;;1.40;1.13;;;;;26.10;100521.00;;;;2069712;28;20457;-57
2022/08/27 01:19:44;;;;;;;1.63;0.90;;;;;26.10;100520.00;;;;2086592;28;20746;-57
2022/08/27 01:20:54;;;;;;;1.30;0.90;;;;;26.10;100524.00;;;;2085893;28;20533;-57
2022/08/27 01:22:07;;;;;;;1.50;1.00;;;;;26.10;100521.00;;;;2076605;28;20875;-56
2022/08/27 01:23:23;;;;;;;1.50;0.90;;;;;26.10;100520.00;;;;2080881;28;20964;-56
2022/08/27 01:24:34;;;;;;;1.63;1.10;;;;;26.10;100517.00;;;;2095666;28;20446;-58
2022/08/27 01:25:34;;;;;;;1.10;0.90;;;;;26.10;100518.00;;;;2087989;28;20526;-57
2022/08/27 01:26:35;;;;;;;1.43;1.07;;;;;26.10;100521.00;;;;2083989;28;20463;-57
2022/08/27 01:27:35;;;;;;;1.60;1.33;;;;;26.10;100517.00;;;;2095521;28;21024;-57
2022/08/27 01:28:36;;;;;;;1.30;1.03;;;;;26.10;100495.00;;;;2096279;28;20231;-56
2022/08/27 01:29:36;;;;;;;1.20;1.00;;;;;26.10;100515.00;;;;2088012;28;20288;-57
2022/08/27 01:30:37;;;;;;;1.10;1.00;;;;;26.10;100515.00;;;;2096257;28;20602;-57
2022/08/27 01:31:37;;;;;;;1.37;1.10;;;;;26.10;100519.00;;;;2096085;28;20586;-57
2022/08/27 01:32:38;;;;;;;1.20;1.00;;;;;26.10;100519.00;;;;2097289;28;20235;-57
2022/08/27 01:33:38;;;;;;;1.50;1.30;;;;;26.10;100512.00;;;;2097063;28;20576;-56
2022/08/27 01:34:38;;;;;;;1.20;1.10;;;;;26.10;100510.00;;;;2096863;28;20196;-58
2022/08/27 01:35:40;;;;;;;1.00;0.90;;;;;26.10;100518.00;;;;2088914;28;20285;-57
2022/08/27 01:36:40;;;;;;;1.70;1.20;;;;;26.10;100506.00;;;;2088811;28;20282;-57
2022/08/27 01:37:42;;;;;;;1.50;1.10;;;;;26.10;100497.00;;;;2088135;28;20451;-56
2022/08/27 01:38:42;;;;;;;1.40;1.10;;;;;26.10;100511.00;;;;2079438;28;20278;-57
2022/08/27 01:39:43;;;;;;;1.80;1.30;;;;;26.10;100509.00;;;;2079210;28;21320;-57
2022/08/27 01:40:43;;;;;;;1.40;1.20;;;;;26.10;100511.00;;;;2088033;28;20212;-56
2022/08/27 01:41:43;;;;;;;1.10;1.00;;;;;26.10;100509.00;;;;2088089;28;20205;-57
2022/08/27 01:42:46;;;;;;;1.53;1.37;;;;;26.10;100508.00;;;;2092620;28;20232;-58
2022/08/27 01:43:47;;;;;;;1.30;1.20;;;;;26.10;100507.00;;;;2091589;28;20339;-56
2022/08/27 01:44:56;;;;;;;1.10;1.00;;;;;26.10;100510.00;;;;2080031;28;20510;-58
2022/08/27 01:45:56;;;;;;;1.20;0.83;;;;;26.10;100517.00;;;;2088229;28;20213;-56
2022/08/27 01:46:56;;;;;;;0.90;0.73;;;;;26.10;100517.00;;;;2088987;28;20447;-56
2022/08/27 01:47:57;;;;;;;1.33;1.23;;;;;26.10;100514.00;;;;2088186;28;20279;-57
2022/08/27 01:48:57;;;;;;;1.33;1.10;;;;;26.10;100514.00;;;;2088818;28;20270;-57
2022/08/27 01:49:59;;;;;;;1.20;1.07;;;;;26.10;100516.00;;;;2088465;28;20223;-57
2022/08/27 01:50:59;;;;;;;1.43;0.90;;;;;26.10;100517.00;;;;2087956;28;20255;-56
2022/08/27 01:51:59;;;;;;;1.30;1.00;;;;;26.10;100515.00;;;;2094003;28;20442;-56
2022/08/27 01:53:01;;;;;;;1.20;1.00;;;;;26.10;100513.00;;;;2097024;28;20696;-57
2022/08/27 01:54:02;;;;;;;1.17;0.77;;;;;26.10;100516.00;;;;2096616;28;20261;-61
2022/08/27 01:55:04;;;;;;;1.40;1.00;;;;;26.10;100515.00;;;;2096810;28;20435;-59
2022/08/27 01:56:05;;;;;;;1.10;0.90;;;;;26.10;100517.00;;;;2095062;28;20216;-56
2022/08/27 01:57:05;;;;;;;0.93;0.83;;;;;26.10;100514.00;;;;2087774;28;21088;-55
2022/08/27 01:58:05;;;;;;;2.07;1.03;;;;;26.10;100509.00;;;;2094700;28;20216;-56
2022/08/27 01:59:06;;;;;;;1.27;1.00;;;;;26.10;100509.00;;;;2095469;28;20295;-56
2022/08/27 02:00:12;;;;;;;1.20;1.10;;;;;26.10;100507.00;;;;2093941;28;20208;-56
2022/08/27 02:01:13;;;;;;;1.20;1.10;;;;;26.10;100510.00;;;;2097008;28;20648;-56
2022/08/27 02:02:14;;;;;;;1.27;1.03;;;;;26.10;100514.00;;;;2087938;28;20455;-56
2022/08/27 02:03:17;;;;;;;1.00;0.87;;;;;26.10;100508.00;;;;2088151;28;20518;-57
2022/08/27 02:04:18;;;;;;;1.00;0.90;;;;;26.10;100507.00;;;;2104174;28;20883;-57
2022/08/27 02:05:18;;;;;;;1.97;1.10;;;;;26.10;100507.00;;;;2087668;28;20451;-57
2022/08/27 02:06:18;;;;;;;1.30;1.20;;;;;26.10;100507.00;;;;2086755;28;20518;-57
2022/08/27 02:07:19;;;;;;;1.10;0.93;;;;;26.10;100507.00;;;;2087976;28;20233;-58
2022/08/27 02:08:19;;;;;;;1.50;1.00;;;;;26.10;100507.00;;;;2088473;28;20236;-57
2022/08/27 02:09:20;;;;;;;1.57;1.03;;;;;26.10;100508.00;;;;2091816;28;20200;-56
2022/08/27 02:10:28;;;;;;;1.20;1.10;;;;;26.10;100495.00;;;;2096431;28;20781;-57
2022/08/27 02:11:28;;;;;;;1.00;0.87;;;;;26.10;100504.00;;;;2088831;28;20220;-56
2022/08/27 02:12:29;;;;;;;1.10;0.90;;;;;26.10;100503.00;;;;2087383;28;20852;-56
2022/08/27 02:13:29;;;;;;;1.13;1.03;;;;;26.10;100510.00;;;;2089422;28;20300;-57
2022/08/27 02:14:29;;;;;;;1.07;0.97;;;;;26.10;100513.00;;;;2094825;28;20700;-56
2022/08/27 02:15:30;;;;;;;1.30;0.90;;;;;26.10;100526.00;;;;2088598;28;20712;-56
2022/08/27 02:16:33;;;;;;;2.30;0.90;;;;;26.10;100513.00;;;;2088469;28;21078;-57
2022/08/27 02:17:33;;;;;;;1.33;1.03;;;;;26.10;100507.00;;;;2087862;28;20676;-56
2022/08/27 02:18:35;;;;;;;1.30;1.20;;;;;26.10;100506.00;;;;2093723;28;20533;-57
2022/08/27 02:19:36;;;;;;;1.30;1.20;;;;;26.10;100505.00;;;;2092953;28;20217;-56
2022/08/27 02:20:36;;;;;;;1.20;0.93;;;;;26.10;100510.00;;;;2088179;28;20491;-60
2022/08/27 02:21:37;;;;;;;1.10;0.90;;;;;26.10;100503.00;;;;2088346;28;20213;-57
2022/08/27 02:22:37;;;;;;;1.17;1.00;;;;;26.10;100508.00;;;;2088366;28;20213;-57
2022/08/27 02:23:38;;;;;;;1.17;1.00;;;;;26.10;100505.00;;;;2091460;28;20446;-57
2022/08/27 02:24:40;;;;;;;1.10;1.00;;;;;26.10;100502.00;;;;2095832;28;20773;-57
2022/08/27 02:25:40;;;;;;;1.40;0.93;;;;;26.10;100503.00;;;;2091237;28;20575;-57
2022/08/27 02:26:40;;;;;;;1.10;1.00;;;;;26.10;100503.00;;;;2088582;28;20454;-57
2022/08/27 02:27:41;;;;;;;1.47;0.93;;;;;26.10;100502.00;;;;2087114;28;20589;-56
2022/08/27 02:28:42;;;;;;;1.17;1.07;;;;;26.10;100497.00;;;;2088059;28;20548;-57
2022/08/27 02:29:42;;;;;;;1.47;1.03;;;;;26.10;100500.00;;;;2089469;28;20323;-57
2022/08/27 02:30:43;;;;;;;1.63;0.93;;;;;26.10;100499.00;;;;2095788;28;20684;-58
2022/08/27 02:31:43;;;;;;;1.13;1.00;;;;;26.10;100499.00;;;;2096034;28;20683;-56
2022/08/27 02:32:46;;;;;;;2.07;1.00;;;;;26.10;100498.00;;;;2096580;28;20212;-57
2022/08/27 02:33:46;;;;;;;1.00;0.90;;;;;26.10;100490.00;;;;2096560;28;20235;-57
2022/08/27 02:34:47;;;;;;;1.00;0.90;;;;;26.10;100491.00;;;;2096453;28;20458;-57
2022/08/27 02:35:48;;;;;;;1.20;0.90;;;;;26.10;100496.00;;;;2096769;28;20458;-57
2022/08/27 02:36:49;;;;;;;1.33;1.00;;;;;26.10;100496.00;;;;2096575;28;20232;-56
2022/08/27 02:37:49;;;;;;;1.30;1.00;;;;;26.10;100496.00;;;;2095822;28;20473;-57
2022/08/27 02:38:50;;;;;;;1.03;0.87;;;;;26.10;100488.00;;;;2096238;28;20200;-56
2022/08/27 02:39:50;;;;;;;1.40;1.00;;;;;26.10;100495.00;;;;2096544;28;20212;-56
2022/08/27 02:40:50;;;;;;;1.33;1.20;;;;;26.10;100496.00;;;;2096380;28;20212;-57
2022/08/27 02:41:51;;;;;;;1.63;1.33;;;;;26.10;100490.00;;;;2095534;28;20242;-57
2022/08/27 02:42:51;;;;;;;1.10;1.00;;;;;26.10;100494.00;;;;2088182;28;20197;-56
2022/08/27 02:43:51;;;;;;;1.20;0.90;;;;;26.10;100498.00;;;;2088410;28;20259;-55
2022/08/27 02:44:53;;;;;;;1.20;1.00;;;;;26.00;100491.00;;;;2091868;28;20661;-56
2022/08/27 02:45:53;;;;;;;1.20;0.90;;;;;26.10;100486.00;;;;2090004;28;20212;-57
2022/08/27 02:46:53;;;;;;;1.50;0.90;;;;;26.10;100489.00;;;;2087822;28;21006;-56
2022/08/27 02:47:54;;;;;;;1.20;0.90;;;;;26.10;100484.00;;;;2087385;28;21037;-56
2022/08/27 02:48:54;;;;;;;1.23;0.87;;;;;26.10;100488.00;;;;2091097;28;20769;-56
2022/08/27 02:49:55;;;;;;;1.13;0.90;;;;;26.10;100486.00;;;;2087137;28;20236;-56
2022/08/27 02:50:55;;;;;;;1.30;1.07;;;;;26.00;100488.00;;;;2095440;28;20621;-57
2022/08/27 02:51:56;;;;;;;1.20;1.00;;;;;26.10;100493.00;;;;2096417;28;20246;-56
2022/08/27 02:52:56;;;;;;;1.93;0.93;;;;;26.10;100484.00;;;;2096127;28;20604;-56
2022/08/27 02:53:57;;;;;;;1.20;0.90;;;;;26.10;100489.00;;;;2096311;28;20293;-58
2022/08/27 02:54:57;;;;;;;1.07;0.97;;;;;26.10;100493.00;;;;2096221;28;20238;-56
2022/08/27 02:55:57;;;;;;;1.07;0.97;;;;;26.10;100491.00;;;;2096383;28;20291;-57
2022/08/27 02:56:58;;;;;;;0.80;0.70;;;;;26.10;100488.00;;;;2096152;28;20212;-57
2022/08/27 02:57:58;;;;;;;1.93;1.00;;;;;26.10;100482.00;;;;2091757;28;20212;-57
2022/08/27 02:58:58;;;;;;;1.10;1.00;;;;;26.10;100489.00;;;;2096324;28;20703;-56
2022/08/27 02:59:59;;;;;;;1.20;1.10;;;;;26.10;100489.00;;;;2096479;28;20703;-57
2022/08/27 03:01:00;;;;;;;1.47;1.00;;;;;26.10;100491.00;;;;2095603;28;20676;-57
2022/08/27 03:02:00;;;;;;;1.30;0.87;;;;;26.10;100494.00;;;;2095898;28;20220;-56
2022/08/27 03:03:01;;;;;;;1.30;1.10;;;;;26.00;100496.00;;;;2087811;28;20971;-56
2022/08/27 03:04:01;;;;;;;1.70;0.90;;;;;26.10;100487.00;;;;2088065;28;20737;-57
2022/08/27 03:05:02;;;;;;;1.40;1.00;;;;;26.10;100484.00;;;;2088076;28;20216;-58
2022/08/27 03:06:02;;;;;;;1.10;1.00;;;;;26.00;100494.00;;;;2087098;28;20208;-57
2022/08/27 03:07:03;;;;;;;1.10;0.90;;;;;26.10;100487.00;;;;2087873;28;20766;-56
2022/08/27 03:08:04;;;;;;;1.20;1.10;;;;;26.10;100500.00;;;;2087559;28;20286;-57
2022/08/27 03:09:04;;;;;;;2.23;0.83;;;;;26.10;100487.00;;;;2087948;28;20251;-57
2022/08/27 03:10:05;;;;;;;1.20;1.10;;;;;26.00;100492.00;;;;2088065;28;20279;-56
2022/08/27 03:11:08;;;;;;;1.20;0.83;;;;;26.10;100495.00;;;;2086805;28;20219;-56
2022/08/27 03:12:08;;;;;;;1.50;1.20;;;;;26.00;100488.00;;;;2087383;28;20224;-57
2022/08/27 03:13:08;;;;;;;1.80;1.17;;;;;26.10;100489.00;;;;2096029;28;21207;-57
2022/08/27 03:14:09;;;;;;;1.20;1.10;;;;;26.00;100495.00;;;;2088624;28;20677;-56
2022/08/27 03:15:11;;;;;;;2.10;0.97;;;;;26.10;100491.00;;;;2092631;28;20753;-57
2022/08/27 03:16:11;;;;;;;1.73;1.00;;;;;26.00;100489.00;;;;2095811;28;20220;-56
2022/08/27 03:18:31;;;;;;;2.10;1.10;;;;;26.00;100494.00;;;;2094609;28;20265;-56
2022/08/27 03:19:32;;;;;;;1.30;1.00;;;;;26.10;100488.00;;;;2095147;28;20493;-57
2022/08/27 03:20:32;;;;;;;1.63;1.10;;;;;26.10;100496.00;;;;2094871;28;20497;-57
2022/08/27 03:21:33;;;;;;;1.23;0.90;;;;;26.10;100499.00;;;;2094638;28;20218;-57
2022/08/27 03:22:33;;;;;;;1.20;0.80;;;;;26.10;100490.00;;;;2094232;28;20307;-56
2022/08/27 03:23:34;;;;;;;1.33;0.90;;;;;26.10;100487.00;;;;2094480;28;20216;-57
2022/08/27 03:24:34;;;;;;;1.20;0.97;;;;;26.10;100491.00;;;;2094222;28;21028;-57
2022/08/27 03:25:35;;;;;;;1.20;0.80;;;;;26.10;100485.00;;;;2085895;28;20717;-56
2022/08/27 03:26:35;;;;;;;1.40;0.80;;;;;26.00;100490.00;;;;2094178;28;20626;-56
2022/08/27 03:27:36;;;;;;;1.20;0.90;;;;;26.00;100491.00;;;;2090056;28;20529;-56
2022/08/27 03:28:36;;;;;;;1.77;1.20;;;;;26.00;100487.00;;;;2078145;28;20244;-57
2022/08/27 03:29:36;;;;;;;1.43;1.13;;;;;26.00;100486.00;;;;2086449;28;20256;-56
2022/08/27 03:30:37;;;;;;;2.17;1.17;;;;;26.00;100485.00;;;;2086835;28;20227;-56
2022/08/27 03:31:37;;;;;;;1.40;0.90;;;;;26.10;100492.00;;;;2087178;28;20260;-56
2022/08/27 03:32:38;;;;;;;1.30;0.90;;;;;26.10;100479.00;;;;2087031;28;20575;-56
2022/08/27 03:33:38;;;;;;;0.83;0.70;;;;;26.00;100463.00;;;;2086866;28;20221;-57
2022/08/27 03:34:38;;;;;;;0.97;0.87;;;;;26.00;100486.00;;;;2086362;28;20217;-56
2022/08/27 03:35:39;;;;;;;1.10;1.00;;;;;26.00;100492.00;;;;2086886;28;20554;-56
2022/08/27 03:36:39;;;;;;;1.33;0.83;;;;;26.00;100492.00;;;;2087053;28;20593;-56
2022/08/27 03:37:39;;;;;;;2.30;0.80;;;;;26.00;100488.00;;;;2085784;28;20217;-56
2022/08/27 03:38:40;;;;;;;1.20;0.90;;;;;26.00;100396.00;;;;2086968;28;20216;-56
2022/08/27 03:39:40;;;;;;;1.27;0.77;;;;;26.00;100487.00;;;;2086448;28;20846;-57
2022/08/27 03:40:42;;;;;;;1.97;1.50;;;;;26.00;100492.00;;;;2086642;28;20654;-57
2022/08/27 03:41:43;;;;;;;1.53;0.87;;;;;26.10;100492.00;;;;2091371;28;20223;-56
2022/08/27 03:42:43;;;;;;;1.90;1.07;;;;;26.10;100489.00;;;;2095082;28;20462;-56
2022/08/27 03:43:43;;;;;;;1.80;1.17;;;;;26.00;100487.00;;;;2094817;28;20342;-56
2022/08/27 03:44:44;;;;;;;1.63;0.90;;;;;26.00;100488.00;;;;2094560;28;20220;-57
2022/08/27 03:45:44;;;;;;;0.90;0.70;;;;;26.00;100491.00;;;;2091845;28;20222;-56
2022/08/27 03:46:45;;;;;;;1.20;0.80;;;;;26.00;100491.00;;;;2094410;28;20208;-56
2022/08/27 03:47:45;;;;;;;1.00;0.90;;;;;26.10;100500.00;;;;2091744;28;20659;-56
2022/08/27 03:48:46;;;;;;;1.10;1.00;;;;;26.10;100489.00;;;;2094485;28;20618;-57
2022/08/27 03:49:46;;;;;;;2.30;1.23;;;;;26.10;100499.00;;;;2095090;28;20735;-57
2022/08/27 03:50:48;;;;;;;1.63;0.70;;;;;26.00;100480.00;;;;2094162;28;20312;-56
2022/08/27 03:51:49;;;;;;;1.00;0.70;;;;;26.00;100494.00;;;;2094653;28;20224;-56
2022/08/27 03:52:49;;;;;;;1.30;1.03;;;;;26.00;100489.00;;;;2094248;28;20454;-57
2022/08/27 03:53:50;;;;;;;1.23;0.80;;;;;26.00;100488.00;;;;2094726;28;20902;-57
2022/08/27 03:54:50;;;;;;;2.73;0.90;;;;;26.00;100493.00;;;;2094798;28;20287;-56
2022/08/27 03:55:50;;;;;;;1.73;0.90;;;;;26.00;100484.00;;;;2094828;28;20304;-56
2022/08/27 03:56:51;;;;;;;1.00;0.90;;;;;26.00;100496.00;;;;2095212;28;20239;-56
2022/08/27 03:57:51;;;;;;;1.00;0.80;;;;;26.00;100487.00;;;;2093884;28;20212;-57
2022/08/27 03:58:52;;;;;;;1.07;0.80;;;;;26.00;100497.00;;;;2094149;28;21009;-57
2022/08/27 03:59:52;;;;;;;1.13;0.90;;;;;26.00;100496.00;;;;2094494;28;20692;-59
2022/08/27 04:00:52;;;;;;;1.23;0.80;;;;;26.00;100493.00;;;;2092060;28;20223;-58
2022/08/27 04:01:53;;;;;;;1.17;0.80;;;;;26.00;100498.00;;;;2086935;28;20221;-57
2022/08/27 04:02:53;;;;;;;1.10;0.90;;;;;26.00;100506.00;;;;2086728;28;20305;-58
2022/08/27 04:03:54;;;;;;;2.03;0.90;;;;;25.60;100494.00;;;;2086102;28;20227;-57
2022/08/27 04:04:56;;;;;;;1.73;1.07;;;;;26.00;100495.00;;;;2085963;28;20266;-58
2022/08/27 04:05:57;;;;;;;1.27;0.83;;;;;26.00;100504.00;;;;2086793;28;20255;-56
2022/08/27 04:06:57;;;;;;;1.20;0.77;;;;;26.00;100497.00;;;;2086742;28;20455;-56
2022/08/27 04:07:57;;;;;;;1.93;0.93;;;;;26.00;100496.00;;;;2085552;28;20225;-56
2022/08/27 04:08:59;;;;;;;1.23;0.80;;;;;26.00;100501.00;;;;2086183;28;20223;-57
2022/08/27 04:09:59;;;;;;;1.07;0.87;;;;;26.00;100504.00;;;;2086878;28;20677;-56
2022/08/27 04:10:59;;;;;;;1.00;0.70;;;;;26.00;100505.00;;;;2086575;28;20455;-56
2022/08/27 04:12:00;;;;;;;1.17;0.80;;;;;26.00;100492.00;;;;2087150;28;20304;-56
2022/08/27 04:13:00;;;;;;;1.37;0.90;;;;;26.00;100499.00;;;;2087413;28;20215;-56
2022/08/27 04:14:03;;;;;;;1.73;0.90;;;;;26.00;100505.00;;;;2087187;28;20224;-56
2022/08/27 04:15:04;;;;;;;1.10;0.70;;;;;26.00;100500.00;;;;2092200;28;20668;-57
2022/08/27 04:16:05;;;;;;;0.97;0.80;;;;;26.00;100493.00;;;;2094692;28;20450;-56
2022/08/27 04:17:05;;;;;;;1.10;0.80;;;;;26.00;100499.00;;;;2094541;28;20497;-57
2022/08/27 04:18:05;;;;;;;1.73;1.00;;;;;26.00;100495.00;;;;2094612;28;20220;-57
2022/08/27 04:19:06;;;;;;;1.00;0.90;;;;;26.00;100497.00;;;;2095051;28;20247;-57
2022/08/27 04:20:07;;;;;;;1.10;1.00;;;;;26.00;100495.00;;;;2086403;28;20216;-56
2022/08/27 04:21:10;;;;;;;0.80;0.70;;;;;26.00;100494.00;;;;2086438;28;20484;-56
2022/08/27 04:22:11;;;;;;;1.30;0.80;;;;;26.00;100496.00;;;;2095346;28;20462;-57
2022/08/27 04:23:12;;;;;;;1.40;0.90;;;;;26.00;100499.00;;;;2095345;28;20449;-56
2022/08/27 04:24:13;;;;;;;1.10;0.90;;;;;26.00;100484.00;;;;2095087;28;20496;-56
2022/08/27 04:25:13;;;;;;;1.00;0.80;;;;;26.00;100496.00;;;;2095467;28;20834;-56
2022/08/27 04:26:14;;;;;;;1.47;0.90;;;;;26.00;100499.00;;;;2095097;28;20679;-56
2022/08/27 04:27:15;;;;;;;1.07;0.90;;;;;26.00;100498.00;;;;2094506;28;20216;-57
2022/08/27 04:28:15;;;;;;;1.77;1.00;;;;;26.00;100497.00;;;;2093970;28;20494;-57
2022/08/27 04:29:15;;;;;;;1.03;0.73;;;;;26.00;100505.00;;;;2086148;28;20273;-57
2022/08/27 04:30:18;;;;;;;0.87;0.70;;;;;26.00;100508.00;;;;2094745;28;20317;-56
2022/08/27 04:31:20;;;;;;;1.20;1.07;;;;;26.00;100499.00;;;;2090219;28;20300;-57
2022/08/27 04:32:20;;;;;;;1.10;0.90;;;;;26.00;100504.00;;;;2087154;28;20536;-57
2022/08/27 04:33:21;;;;;;;1.13;0.87;;;;;26.00;100504.00;;;;2087257;28;20940;-57
2022/08/27 04:34:21;;;;;;;2.53;1.00;;;;;26.00;100501.00;;;;2086831;28;20238;-57
2022/08/27 04:35:22;;;;;;;0.90;0.80;;;;;26.00;100504.00;;;;2087157;28;20227;-57
2022/08/27 04:36:22;;;;;;;1.30;1.07;;;;;26.00;100497.00;;;;2086721;28;20216;-56
2022/08/27 04:37:23;;;;;;;1.30;1.10;;;;;26.00;100499.00;;;;2086227;28;20217;-56
2022/08/27 04:38:23;;;;;;;1.83;1.07;;;;;26.00;100505.00;;;;2086077;28;20395;-57
2022/08/27 04:39:24;;;;;;;1.07;0.83;;;;;26.00;100512.00;;;;2086169;28;20233;-56
2022/08/27 04:41:18;;;;;;;1.87;0.97;;;;;26.00;100506.00;;;;2089523;28;20240;-56
2022/08/27 04:41:48;;;;;;;1.07;0.80;;;;;26.00;100509.00;;;;2092664;28;21124;-56
2022/08/27 04:42:51;;;;;;;1.50;0.70;;;;;26.00;100505.00;;;;2086860;28;20459;-57
2022/08/27 04:43:53;;;;;;;1.30;0.73;;;;;26.00;100513.00;;;;2091637;28;20515;-56
2022/08/27 04:44:53;;;;;;;1.03;0.80;;;;;26.00;100515.00;;;;2090224;28;20439;-56
2022/08/27 04:45:54;;;;;;;1.37;0.87;;;;;26.00;100511.00;;;;2086306;28;20923;-56
2022/08/27 04:46:59;;;;;;;1.17;0.93;;;;;26.00;100509.00;;;;2090776;28;20219;-56
2022/08/27 04:47:59;;;;;;;1.63;1.33;;;;;26.00;100512.00;;;;2085367;28;20232;-56
2022/08/27 04:49:01;;;;;;;1.00;0.80;;;;;26.00;100511.00;;;;2085624;28;20454;-59
2022/08/27 04:50:01;;;;;;;1.17;0.90;;;;;26.00;100514.00;;;;2095352;28;20212;-57
2022/08/27 04:51:01;;;;;;;1.23;0.70;;;;;26.00;100512.00;;;;2090994;28;20456;-56
2022/08/27 04:52:02;;;;;;;1.00;0.80;;;;;26.00;100512.00;;;;2086266;28;20220;-57
2022/08/27 04:53:02;;;;;;;1.30;0.80;;;;;26.00;100512.00;;;;2086374;28;20204;-56
2022/08/27 04:54:03;;;;;;;1.80;0.90;;;;;26.00;100513.00;;;;2086767;28;20785;-57
2022/08/27 04:55:04;;;;;;;1.63;0.83;;;;;26.00;100516.00;;;;2082099;28;20615;-57
2022/08/27 04:56:05;;;;;;;1.43;0.90;;;;;26.00;100520.00;;;;2085354;28;20259;-57
2022/08/27 04:57:05;;;;;;;1.30;0.93;;;;;26.00;100518.00;;;;2094705;28;21005;-56
2022/08/27 04:58:06;;;;;;;1.97;0.80;;;;;26.00;100515.00;;;;2093510;28;20251;-58
2022/08/27 04:59:07;;;;;;;1.03;0.80;;;;;26.00;100518.00;;;;2085514;28;20544;-57
2022/08/27 05:00:08;;;;;;;1.60;1.00;;;;;26.00;100516.00;;;;2094601;28;20216;-57
2022/08/27 05:01:13;;;;;;;1.03;0.70;;;;;26.00;100514.00;;;;2094914;28;20542;-56
2022/08/27 05:02:13;;;;;;;1.00;0.73;;;;;26.00;100519.00;;;;2094420;28;20223;-56
2022/08/27 05:03:15;;;;;;;1.03;0.63;;;;;26.00;100526.00;;;;2082624;28;20460;-56
2022/08/27 05:04:16;;;;;;;1.57;1.00;;;;;26.00;100536.00;;;;2090854;28;20271;-56
2022/08/27 05:05:17;;;;;;;1.30;1.00;;;;;26.00;100515.00;;;;2095378;28;20475;-57